| time (UTC) | temp F | wind direction | speed MPH | gust MPH | rain 1hr in | rain 24hr in | rain mn in | humidity % | barometer mb |
| 20260905033020 | 64 | 332 | 0.0 | 0.0 | 0.00 | 0.00 | 0.00 | 79 | 1006.5 |
| 20260905031556 | 64 | 333 | 0.0 | 0.0 | 0.00 | 0.00 | 0.00 | 79 | 1006.5 |
| 20260905030036 | 64 | 333 | 0.0 | 2.0 | 0.00 | 0.00 | 0.00 | 79 | 1006.6 |
| 20260905024506 | 64 | 343 | 0.0 | 2.0 | 0.00 | 0.00 | 0.00 | 79 | 1006.6 |
| 20260905023046 | 65 | 281 | 0.0 | 1.0 | 0.00 | 0.00 | 0.00 | 79 | 1006.7 |
| 20260905021519 | 65 | 273 | 0.0 | 1.0 | 0.00 | 0.00 | 0.00 | 79 | 1006.8 |
| 20260905020053 | 66 | 273 | 0.0 | 0.0 | 0.00 | 0.00 | 0.00 | 78 | 1006.9 |
| 20260905014530 | 66 | 273 | 0.0 | 0.0 | 0.00 | 0.00 | 0.00 | 76 | 1006.8 |
| 20260905013016 | 67 | 273 | 0.0 | 0.0 | 0.00 | 0.00 | 0.00 | 75 | 1006.9 |
| 20260905011554 | 68 | 273 | 0.0 | 0.0 | 0.00 | 0.00 | 0.00 | 74 | 1006.9 |
| 20260905010036 | 69 | 273 | 0.0 | 0.0 | 0.00 | 0.00 | 0.00 | 71 | 1006.9 |
| 20260905004504 | 70 | 273 | 0.0 | 0.0 | 0.00 | 0.00 | 0.00 | 69 | 1006.8 |
| 20260905003042 | 71 | 273 | 0.0 | 0.0 | 0.00 | 0.00 | 0.00 | 67 | 1006.9 |
| 20260905001525 | 71 | 273 | 0.0 | 1.0 | 0.00 | 0.00 | 0.00 | 64 | 1006.9 |
| 20260905000010 | 72 | 271 | 0.0 | 1.0 | 0.00 | 0.00 | 0.00 | 63 | 1006.8 |
| 20260904234548 | 72 | 331 | 0.0 | 4.0 | 0.00 | 0.00 | 0.00 | 62 | 1006.5 |
| 20260904233039 | 72 | 314 | 0.0 | 0.0 | 0.00 | 0.00 | 0.00 | 61 | 1006.4 |
| 20260904231517 | 73 | 291 | 0.0 | 2.0 | 0.00 | 0.00 | 0.00 | 60 | 1006.3 |
| 20260904230049 | 73 | 331 | 0.0 | 2.0 | 0.00 | 0.00 | 0.00 | 60 | 1006.4 |
| 20260904224525 | 74 | 294 | 0.0 | 4.0 | 0.00 | 0.00 | 0.00 | 60 | 1006.3 |
| 20260904223009 | 74 | 342 | 0.0 | 3.0 | 0.00 | 0.00 | 0.00 | 60 | 1006.2 |
| 20260904221553 | 74 | 302 | 2.0 | 8.0 | 0.00 | 0.00 | 0.00 | 60 | 1006.3 |
| 20260904220024 | 75 | 261 | 0.0 | 8.0 | 0.00 | 0.00 | 0.00 | 60 | 1006.3 |
| 20260904214601 | 75 | 298 | 1.0 | 6.0 | 0.00 | 0.00 | 0.00 | 61 | 1006.1 |
| 20260904213035 | 74 | 192 | 0.0 | 0.0 | 0.00 | 0.00 | 0.00 | 78 | 1006.1 |
| 20260904211509 | 72 | 192 | 0.0 | 0.0 | 0.00 | 0.00 | 0.00 | 82 | 1006.1 |
| 20260904210053 | 71 | 192 | 0.0 | 0.0 | 0.00 | 0.00 | 0.00 | 84 | 1006.2 |
| 20260904204532 | 72 | 199 | 0.0 | 0.0 | 0.00 | 0.00 | 0.00 | 83 | 1006.2 |
| 20260904203003 | 72 | 161 | 0.0 | 0.0 | 0.00 | 0.00 | 0.00 | 84 | 1006.1 |
| 20260904201542 | 72 | 192 | 0.0 | 0.0 | 0.00 | 0.00 | 0.00 | 81 | 1006.1 |
| 20260904200013 | 74 | 169 | 0.0 | 0.0 | 0.00 | 0.00 | 0.00 | 78 | 1006.0 |
| 20260904194551 | 75 | 233 | 0.0 | 0.0 | 0.00 | 0.00 | 0.00 | 76 | 1006.0 |
| 20260904193038 | 75 | 229 | 0.0 | 0.0 | 0.00 | 0.00 | 0.00 | 76 | 1006.0 |
| 20260904191509 | 74 | 219 | 0.0 | 0.0 | 0.00 | 0.00 | 0.00 | 78 | 1006.2 |
| 20260904190051 | 73 | 188 | 0.0 | 0.0 | 0.00 | 0.00 | 0.00 | 80 | 1006.7 |
| 20260904184530 | 71 | 165 | 0.0 | 0.0 | 0.00 | 0.00 | 0.00 | 82 | 1006.8 |
| 20260904183102 | 69 | 225 | 2.0 | 6.0 | 0.00 | 0.00 | 0.00 | 84 | 1006.6 |
| 20260904181536 | 69 | 213 | 0.0 | 0.0 | 0.00 | 0.00 | 0.00 | 82 | 1006.7 |
| 20260904180022 | 72 | 190 | 1.0 | 5.0 | 0.00 | 0.00 | 0.00 | 79 | 1006.7 |
| 20260904174513 | 73 | 221 | 0.0 | 0.0 | 0.00 | 0.00 | 0.00 | 76 | 1006.6 |
| 20260904173058 | 75 | 156 | 0.0 | 0.0 | 0.00 | 0.00 | 0.00 | 74 | 1006.6 |
| 20260904171518 | 75 | 231 | 0.0 | 0.0 | 0.00 | 0.00 | 0.00 | 76 | 1006.8 |
| 20260904170053 | 74 | 139 | 0.0 | 6.0 | 0.00 | 0.00 | 0.00 | 77 | 1006.9 |
| 20260904164527 | 73 | 196 | 0.0 | 3.0 | 0.00 | 0.00 | 0.00 | 79 | 1007.0 |
| 20260904163005 | 72 | 163 | 0.0 | 5.0 | 0.00 | 0.00 | 0.00 | 79 | 1007.1 |
| 20260904161559 | 74 | 229 | 0.0 | 0.0 | 0.00 | 0.00 | 0.00 | 76 | 1007.4 |
| 20260904160044 | 74 | 209 | 0.0 | 5.0 | 0.00 | 0.00 | 0.00 | 78 | 1007.3 |
| 20260904154512 | 74 | 230 | 0.0 | 0.0 | 0.00 | 0.00 | 0.00 | 77 | 1007.5 |
| 20260904153049 | 74 | 202 | 0.0 | 0.0 | 0.00 | 0.00 | 0.00 | 77 | 1007.7 |
| 20260904151524 | 74 | 96 | 0.0 | 0.0 | 0.00 | 0.00 | 0.00 | 77 | 1007.7 |
| 20260904150009 | 74 | 237 | 1.0 | 4.0 | 0.00 | 0.02 | 0.00 | 76 | 1007.8 |
| 20260904144538 | 74 | 251 | 0.0 | 2.0 | 0.00 | 0.02 | 0.00 | 77 | 1007.8 |
| 20260904143011 | 74 | 24 | 0.0 | 0.0 | 0.00 | 0.02 | 0.00 | 79 | 1007.8 |
| 20260904141554 | 71 | 44 | 0.0 | 0.0 | 0.00 | 0.02 | 0.00 | 83 | 1008.0 |
| 20260904140020 | 69 | 325 | 0.0 | 1.0 | 0.00 | 0.03 | 0.00 | 86 | 1008.0 |
| 20260904134612 | 68 | 28 | 0.0 | 1.0 | 0.00 | 0.03 | 0.00 | 89 | 1008.1 |
| 20260904133040 | 67 | 209 | 0.0 | 0.0 | 0.00 | 0.03 | 0.00 | 90 | 1008.2 |
| 20260904131512 | 66 | 101 | 0.0 | 0.0 | 0.00 | 0.03 | 0.00 | 92 | 1008.1 |
| 20260904130048 | 65 | 321 | 0.0 | 0.0 | 0.00 | 0.05 | 0.00 | 94 | 1008.0 |
| 20260904124520 | 64 | 342 | 0.0 | 0.0 | 0.00 | 0.05 | 0.00 | 94 | 1008.2 |
| 20260904123006 | 64 | 241 | 0.0 | 3.0 | 0.00 | 0.05 | 0.00 | 94 | 1008.2 |
| 20260904121550 | 64 | 263 | 0.0 | 0.0 | 0.00 | 0.05 | 0.00 | 94 | 1008.2 |
| 20260904120022 | 64 | 26 | 0.0 | 0.0 | 0.00 | 0.05 | 0.00 | 95 | 1008.1 |
| 20260904114601 | 64 | 346 | 0.0 | 0.0 | 0.00 | 0.05 | 0.00 | 95 | 1008.1 |
| 20260904113030 | 63 | 315 | 0.0 | 0.0 | 0.00 | 0.05 | 0.00 | 95 | 1008.1 |
| 20260904111516 | 63 | 330 | 0.0 | 0.0 | 0.00 | 0.05 | 0.00 | 95 | 1008.1 |
| 20260904110054 | 64 | 256 | 0.0 | 0.0 | 0.00 | 0.06 | 0.00 | 95 | 1008.0 |
| 20260904104531 | 64 | 255 | 0.0 | 0.0 | 0.00 | 0.06 | 0.00 | 95 | 1008.0 |
| 20260904103007 | 64 | 255 | 0.0 | 0.0 | 0.00 | 0.06 | 0.00 | 95 | 1008.0 |
| 20260904101544 | 64 | 241 | 0.0 | 0.0 | 0.00 | 0.06 | 0.00 | 95 | 1007.8 |
| 20260904100022 | 64 | 279 | 0.0 | 0.0 | 0.00 | 0.15 | 0.00 | 95 | 1007.8 |
| 20260904094601 | 64 | 266 | 0.0 | 0.0 | 0.00 | 0.15 | 0.00 | 95 | 1007.8 |
| 20260904093031 | 64 | 266 | 0.0 | 0.0 | 0.00 | 0.15 | 0.00 | 95 | 1007.7 |
| 20260904091510 | 64 | 275 | 0.0 | 0.0 | 0.00 | 0.15 | 0.00 | 95 | 1007.6 |
| 20260904090054 | 64 | 261 | 0.0 | 0.0 | 0.00 | 0.15 | 0.00 | 95 | 1007.8 |
| 20260904084529 | 64 | 261 | 0.0 | 0.0 | 0.00 | 0.15 | 0.00 | 94 | 1007.7 |
| 20260904083004 | 63 | 261 | 0.0 | 0.0 | 0.00 | 0.15 | 0.00 | 94 | 1007.8 |
| 20260904081540 | 63 | 261 | 0.0 | 0.0 | 0.00 | 0.15 | 0.00 | 94 | 1007.8 |
| 20260904080018 | 64 | 261 | 0.0 | 0.0 | 0.00 | 0.15 | 0.00 | 94 | 1007.8 |
| 20260904074555 | 63 | 261 | 0.0 | 0.0 | 0.00 | 0.15 | 0.00 | 94 | 1008.0 |
| 20260904073031 | 63 | 261 | 0.0 | 0.0 | 0.00 | 0.15 | 0.00 | 94 | 1008.1 |
| 20260904071517 | 64 | 261 | 0.0 | 0.0 | 0.00 | 0.15 | 0.00 | 94 | 1008.1 |
| 20260904070108 | 64 | 261 | 0.0 | 0.0 | 0.00 | 0.15 | 0.00 | 94 | 1008.2 |
| 20260904064517 | 63 | 261 | 0.0 | 0.0 | 0.00 | 0.15 | 0.00 | 94 | 1008.4 |
| 20260904063101 | 64 | 261 | 0.0 | 0.0 | 0.00 | 0.15 | 0.00 | 94 | 1008.6 |
| 20260904061534 | 63 | 261 | 0.0 | 0.0 | 0.00 | 0.15 | 0.00 | 94 | 1008.7 |
| 20260904060005 | 63 | 261 | 0.0 | 0.0 | 0.00 | 0.15 | 0.00 | 94 | 1009.0 |
| 20260904054547 | 63 | 261 | 0.0 | 0.0 | 0.00 | 0.15 | 0.00 | 94 | 1009.1 |
| 20260904053041 | 63 | 261 | 0.0 | 0.0 | 0.00 | 0.15 | 0.00 | 94 | 1009.2 |
| 20260904051601 | 63 | 261 | 0.0 | 0.0 | 0.00 | 0.15 | 0.00 | 93 | 1009.3 |
| 20260904050040 | 63 | 261 | 0.0 | 0.0 | 0.00 | 0.15 | 0.00 | 94 | 1009.5 |
| 20260904044512 | 64 | 261 | 0.0 | 0.0 | 0.00 | 0.15 | 0.00 | 94 | 1009.6 |
| 20260904043057 | 63 | 260 | 0.0 | 0.0 | 0.00 | 0.15 | 0.00 | 93 | 1009.5 |
| 20260904041521 | 63 | 325 | 0.0 | 0.0 | 0.00 | 0.15 | 0.00 | 93 | 1009.7 |
| 20260904040007 | 63 | 259 | 0.0 | 0.0 | 0.00 | 0.15 | 0.15 | 93 | 1009.8 |
| 20260904034542 | 63 | 259 | 0.0 | 0.0 | 0.00 | 0.15 | 0.15 | 93 | 1009.9 |